Sweet Brier, California
Current Conditions -  °F | °C
As of 2:56 AM on Thursday 23 Oct 2014 (Local Time) from KMHS Reporting Station
Light Rain Light Rain  
Wind Chill: 48°   Ceiling: 6000
Heat Index: 48°   Visibility: 8mi
Dew Point: 46°   Wind: 3mph
Humidity: 93%   Direction: NA
Pressure: 30.06"   Gusts: NA
Location:  41.1386°N, 122.317°W
Report Text: KMHS 230956Z AUTO VRB03KT 8SM -RA FEW050 OVC060 09/08 A3006 RMK AO2 SLP188 P0004 T00890078
Loading
Personal Weather Stations






























Interactive Weather Map
Tropical Storm Tracking
New forecast layout! Learn more

10-Day Weather Forecast

Advertisements
Track Severe Weather on mobile